sensor_id;sensor_type;location;lat;lon;timestamp;P1;durP1;ratioP1;P2;durP2;ratioP2
4583;SDS011;2304;47.606;12.186;2023-09-30T00:00:50;16.87;;;5.20;;
4583;SDS011;2304;47.606;12.186;2023-09-30T00:05:51;9.30;;;4.93;;
4583;SDS011;2304;47.606;12.186;2023-09-30T00:10:55;6.93;;;4.70;;
4583;SDS011;2304;47.606;12.186;2023-09-30T00:15:57;9.33;;;5.30;;
4583;SDS011;2304;47.606;12.186;2023-09-30T00:20:58;9.50;;;4.97;;
4583;SDS011;2304;47.606;12.186;2023-09-30T00:26:02;7.70;;;5.10;;
4583;SDS011;2304;47.606;12.186;2023-09-30T00:31:06;7.80;;;4.83;;
4583;SDS011;2304;47.606;12.186;2023-09-30T00:36:10;10.27;;;5.17;;
4583;SDS011;2304;47.606;12.186;2023-09-30T00:41:13;7.10;;;4.70;;
4583;SDS011;2304;47.606;12.186;2023-09-30T00:46:17;8.77;;;5.30;;
4583;SDS011;2304;47.606;12.186;2023-09-30T00:51:26;12.70;;;6.13;;
4583;SDS011;2304;47.606;12.186;2023-09-30T00:56:30;11.03;;;6.57;;
4583;SDS011;2304;47.606;12.186;2023-09-30T01:01:32;10.53;;;7.23;;
4583;SDS011;2304;47.606;12.186;2023-09-30T01:06:33;8.33;;;5.00;;
4583;SDS011;2304;47.606;12.186;2023-09-30T01:11:37;13.60;;;7.40;;
4583;SDS011;2304;47.606;12.186;2023-09-30T01:16:40;13.67;;;7.07;;
4583;SDS011;2304;47.606;12.186;2023-09-30T01:21:43;20.30;;;10.00;;
4583;SDS011;2304;47.606;12.186;2023-09-30T01:26:48;20.70;;;7.73;;
4583;SDS011;2304;47.606;12.186;2023-09-30T01:31:50;16.83;;;7.60;;
4583;SDS011;2304;47.606;12.186;2023-09-30T01:36:53;14.73;;;7.10;;
4583;SDS011;2304;47.606;12.186;2023-09-30T01:41:55;16.57;;;7.77;;
4583;SDS011;2304;47.606;12.186;2023-09-30T01:46:56;16.50;;;7.70;;
4583;SDS011;2304;47.606;12.186;2023-09-30T01:52:00;16.63;;;7.60;;
4583;SDS011;2304;47.606;12.186;2023-09-30T01:57:02;14.03;;;7.63;;
4583;SDS011;2304;47.606;12.186;2023-09-30T02:02:04;14.90;;;6.90;;
4583;SDS011;2304;47.606;12.186;2023-09-30T02:07:07;17.60;;;7.80;;
4583;SDS011;2304;47.606;12.186;2023-09-30T02:12:09;16.47;;;9.10;;
4583;SDS011;2304;47.606;12.186;2023-09-30T02:17:11;16.80;;;9.00;;
4583;SDS011;2304;47.606;12.186;2023-09-30T02:22:14;14.90;;;7.60;;
4583;SDS011;2304;47.606;12.186;2023-09-30T02:27:16;18.80;;;9.50;;
4583;SDS011;2304;47.606;12.186;2023-09-30T02:32:18;16.80;;;7.60;;
4583;SDS011;2304;47.606;12.186;2023-09-30T02:37:21;20.50;;;9.67;;
4583;SDS011;2304;47.606;12.186;2023-09-30T02:42:23;16.00;;;8.10;;
4583;SDS011;2304;47.606;12.186;2023-09-30T02:47:24;18.37;;;8.60;;
4583;SDS011;2304;47.606;12.186;2023-09-30T02:52:27;21.30;;;9.37;;
4583;SDS011;2304;47.606;12.186;2023-09-30T02:57:30;19.20;;;9.00;;
4583;SDS011;2304;47.606;12.186;2023-09-30T03:02:32;22.37;;;10.60;;
4583;SDS011;2304;47.606;12.186;2023-09-30T03:07:35;19.93;;;9.87;;
4583;SDS011;2304;47.606;12.186;2023-09-30T03:12:38;20.00;;;8.77;;
4583;SDS011;2304;47.606;12.186;2023-09-30T03:17:40;19.60;;;9.20;;
4583;SDS011;2304;47.606;12.186;2023-09-30T03:22:43;20.43;;;8.57;;
4583;SDS011;2304;47.606;12.186;2023-09-30T03:27:47;20.63;;;9.30;;
4583;SDS011;2304;47.606;12.186;2023-09-30T03:32:49;23.13;;;10.57;;
4583;SDS011;2304;47.606;12.186;2023-09-30T03:37:53;21.80;;;9.67;;
4583;SDS011;2304;47.606;12.186;2023-09-30T03:42:54;22.93;;;9.50;;
4583;SDS011;2304;47.606;12.186;2023-09-30T03:47:56;18.37;;;8.40;;
4583;SDS011;2304;47.606;12.186;2023-09-30T03:53:02;22.60;;;10.07;;
4583;SDS011;2304;47.606;12.186;2023-09-30T03:58:05;23.30;;;9.73;;
4583;SDS011;2304;47.606;12.186;2023-09-30T04:03:07;19.50;;;9.17;;
4583;SDS011;2304;47.606;12.186;2023-09-30T04:08:10;20.63;;;8.80;;
4583;SDS011;2304;47.606;12.186;2023-09-30T04:13:12;19.77;;;9.30;;
4583;SDS011;2304;47.606;12.186;2023-09-30T04:18:14;20.57;;;9.07;;
4583;SDS011;2304;47.606;12.186;2023-09-30T04:23:17;18.17;;;8.63;;
4583;SDS011;2304;47.606;12.186;2023-09-30T04:28:20;19.87;;;8.57;;
4583;SDS011;2304;47.606;12.186;2023-09-30T04:33:22;20.20;;;10.10;;
4583;SDS011;2304;47.606;12.186;2023-09-30T04:38:26;15.20;;;7.83;;
4583;SDS011;2304;47.606;12.186;2023-09-30T04:43:28;20.53;;;9.27;;
4583;SDS011;2304;47.606;12.186;2023-09-30T04:48:30;16.57;;;8.90;;
4583;SDS011;2304;47.606;12.186;2023-09-30T04:53:33;18.03;;;9.40;;
4583;SDS011;2304;47.606;12.186;2023-09-30T04:58:35;18.93;;;8.30;;
4583;SDS011;2304;47.606;12.186;2023-09-30T05:03:37;16.00;;;9.33;;
4583;SDS011;2304;47.606;12.186;2023-09-30T05:08:40;25.33;;;10.37;;
4583;SDS011;2304;47.606;12.186;2023-09-30T05:13:42;22.20;;;9.90;;
4583;SDS011;2304;47.606;12.186;2023-09-30T05:18:43;17.60;;;9.00;;
4583;SDS011;2304;47.606;12.186;2023-09-30T05:23:47;22.27;;;10.03;;
4583;SDS011;2304;47.606;12.186;2023-09-30T05:28:49;27.50;;;12.83;;
4583;SDS011;2304;47.606;12.186;2023-09-30T05:33:51;22.73;;;10.80;;
4583;SDS011;2304;47.606;12.186;2023-09-30T05:38:55;24.43;;;11.33;;
4583;SDS011;2304;47.606;12.186;2023-09-30T05:43:57;23.80;;;11.67;;
4583;SDS011;2304;47.606;12.186;2023-09-30T05:48:59;26.57;;;11.40;;
4583;SDS011;2304;47.606;12.186;2023-09-30T05:54:03;26.13;;;11.53;;
4583;SDS011;2304;47.606;12.186;2023-09-30T05:59:05;23.70;;;10.00;;
4583;SDS011;2304;47.606;12.186;2023-09-30T06:04:08;24.30;;;11.27;;
4583;SDS011;2304;47.606;12.186;2023-09-30T06:09:12;27.70;;;12.73;;
4583;SDS011;2304;47.606;12.186;2023-09-30T06:14:13;25.37;;;11.50;;
4583;SDS011;2304;47.606;12.186;2023-09-30T06:19:15;23.63;;;11.10;;
4583;SDS011;2304;47.606;12.186;2023-09-30T06:24:19;24.70;;;11.07;;
4583;SDS011;2304;47.606;12.186;2023-09-30T06:29:21;26.23;;;11.17;;
4583;SDS011;2304;47.606;12.186;2023-09-30T06:34:23;26.13;;;12.57;;
4583;SDS011;2304;47.606;12.186;2023-09-30T06:39:26;25.40;;;10.87;;
4583;SDS011;2304;47.606;12.186;2023-09-30T06:44:29;23.77;;;12.57;;
4583;SDS011;2304;47.606;12.186;2023-09-30T06:49:33;24.27;;;12.60;;
4583;SDS011;2304;47.606;12.186;2023-09-30T06:54:36;24.90;;;11.53;;
4583;SDS011;2304;47.606;12.186;2023-09-30T06:59:38;23.63;;;12.33;;
4583;SDS011;2304;47.606;12.186;2023-09-30T07:04:40;24.17;;;12.20;;
4583;SDS011;2304;47.606;12.186;2023-09-30T07:09:44;25.37;;;11.93;;
4583;SDS011;2304;47.606;12.186;2023-09-30T07:14:46;26.73;;;13.07;;
4583;SDS011;2304;47.606;12.186;2023-09-30T07:19:47;26.40;;;10.97;;
4583;SDS011;2304;47.606;12.186;2023-09-30T07:24:51;30.40;;;12.53;;
4583;SDS011;2304;47.606;12.186;2023-09-30T07:29:54;25.37;;;12.53;;
4583;SDS011;2304;47.606;12.186;2023-09-30T07:34:55;27.33;;;11.60;;
4583;SDS011;2304;47.606;12.186;2023-09-30T07:39:58;26.03;;;12.70;;
4583;SDS011;2304;47.606;12.186;2023-09-30T07:45:00;26.70;;;13.50;;
4583;SDS011;2304;47.606;12.186;2023-09-30T07:50:04;26.93;;;13.17;;
4583;SDS011;2304;47.606;12.186;2023-09-30T07:55:11;24.17;;;12.30;;
4583;SDS011;2304;47.606;12.186;2023-09-30T08:00:13;24.67;;;12.87;;
4583;SDS011;2304;47.606;12.186;2023-09-30T08:05:16;29.33;;;12.87;;
4583;SDS011;2304;47.606;12.186;2023-09-30T08:10:19;22.30;;;11.27;;
4583;SDS011;2304;47.606;12.186;2023-09-30T08:15:21;28.03;;;13.13;;
4583;SDS011;2304;47.606;12.186;2023-09-30T08:20:22;24.93;;;12.67;;
4583;SDS011;2304;47.606;12.186;2023-09-30T08:25:25;31.07;;;13.23;;
4583;SDS011;2304;47.606;12.186;2023-09-30T08:30:27;26.67;;;11.60;;
4583;SDS011;2304;47.606;12.186;2023-09-30T08:35:29;25.83;;;11.60;;
4583;SDS011;2304;47.606;12.186;2023-09-30T08:40:33;26.87;;;12.67;;
4583;SDS011;2304;47.606;12.186;2023-09-30T08:45:35;20.93;;;11.50;;
4583;SDS011;2304;47.606;12.186;2023-09-30T08:50:40;22.77;;;11.90;;
4583;SDS011;2304;47.606;12.186;2023-09-30T08:55:44;27.80;;;11.73;;
4583;SDS011;2304;47.606;12.186;2023-09-30T09:00:47;24.37;;;11.90;;
4583;SDS011;2304;47.606;12.186;2023-09-30T09:05:53;26.17;;;11.60;;
4583;SDS011;2304;47.606;12.186;2023-09-30T09:10:58;23.23;;;11.07;;
4583;SDS011;2304;47.606;12.186;2023-09-30T09:16:06;28.47;;;11.77;;
4583;SDS011;2304;47.606;12.186;2023-09-30T09:21:09;30.77;;;13.87;;
4583;SDS011;2304;47.606;12.186;2023-09-30T09:26:22;29.53;;;12.80;;
4583;SDS011;2304;47.606;12.186;2023-09-30T09:31:26;30.00;;;12.77;;
4583;SDS011;2304;47.606;12.186;2023-09-30T09:36:37;25.83;;;12.47;;
4583;SDS011;2304;47.606;12.186;2023-09-30T09:41:50;24.60;;;11.47;;
4583;SDS011;2304;47.606;12.186;2023-09-30T09:46:52;28.20;;;12.63;;
4583;SDS011;2304;47.606;12.186;2023-09-30T09:51:54;30.53;;;11.27;;
4583;SDS011;2304;47.606;12.186;2023-09-30T09:56:59;27.07;;;13.10;;
4583;SDS011;2304;47.606;12.186;2023-09-30T10:02:03;30.33;;;12.47;;
4583;SDS011;2304;47.606;12.186;2023-09-30T10:07:13;24.70;;;11.90;;
4583;SDS011;2304;47.606;12.186;2023-09-30T10:12:22;27.17;;;12.30;;
4583;SDS011;2304;47.606;12.186;2023-09-30T10:28:34;34.33;;;12.93;;
4583;SDS011;2304;47.606;12.186;2023-09-30T10:33:46;28.63;;;12.30;;
4583;SDS011;2304;47.606;12.186;2023-09-30T10:45:01;25.37;;;11.73;;
4583;SDS011;2304;47.606;12.186;2023-09-30T10:50:05;29.40;;;12.97;;
4583;SDS011;2304;47.606;12.186;2023-09-30T10:55:46;26.07;;;11.30;;
4583;SDS011;2304;47.606;12.186;2023-09-30T11:00:56;25.83;;;12.23;;
4583;SDS011;2304;47.606;12.186;2023-09-30T11:09:53;24.60;;;10.70;;
4583;SDS011;2304;47.606;12.186;2023-09-30T11:14:59;30.53;;;12.67;;
4583;SDS011;2304;47.606;12.186;2023-09-30T11:20:04;29.60;;;12.67;;
4583;SDS011;2304;47.606;12.186;2023-09-30T11:25:15;27.50;;;11.50;;
4583;SDS011;2304;47.606;12.186;2023-09-30T11:30:19;26.70;;;11.23;;
4583;SDS011;2304;47.606;12.186;2023-09-30T11:35:22;23.30;;;10.60;;
4583;SDS011;2304;47.606;12.186;2023-09-30T11:40:26;23.57;;;10.93;;
4583;SDS011;2304;47.606;12.186;2023-09-30T11:45:28;24.43;;;10.77;;
4583;SDS011;2304;47.606;12.186;2023-09-30T11:50:44;23.03;;;10.50;;
4583;SDS011;2304;47.606;12.186;2023-09-30T11:55:48;26.10;;;9.93;;
4583;SDS011;2304;47.606;12.186;2023-09-30T12:00:52;24.23;;;9.93;;
4583;SDS011;2304;47.606;12.186;2023-09-30T12:05:55;23.77;;;10.60;;
4583;SDS011;2304;47.606;12.186;2023-09-30T12:10:58;23.83;;;10.63;;
4583;SDS011;2304;47.606;12.186;2023-09-30T12:16:00;27.57;;;11.00;;
4583;SDS011;2304;47.606;12.186;2023-09-30T12:21:03;23.83;;;11.00;;
4583;SDS011;2304;47.606;12.186;2023-09-30T12:26:08;24.87;;;10.93;;
4583;SDS011;2304;47.606;12.186;2023-09-30T12:31:11;22.63;;;10.63;;
4583;SDS011;2304;47.606;12.186;2023-09-30T12:36:13;22.17;;;10.97;;
4583;SDS011;2304;47.606;12.186;2023-09-30T12:41:17;25.80;;;11.00;;
4583;SDS011;2304;47.606;12.186;2023-09-30T12:46:21;23.67;;;9.70;;
4583;SDS011;2304;47.606;12.186;2023-09-30T12:51:24;23.80;;;10.50;;
4583;SDS011;2304;47.606;12.186;2023-09-30T12:56:27;21.60;;;10.40;;
4583;SDS011;2304;47.606;12.186;2023-09-30T13:01:30;25.63;;;11.40;;
4583;SDS011;2304;47.606;12.186;2023-09-30T13:06:34;22.47;;;10.30;;
4583;SDS011;2304;47.606;12.186;2023-09-30T13:11:37;26.10;;;10.87;;
4583;SDS011;2304;47.606;12.186;2023-09-30T13:16:39;26.13;;;11.17;;
4583;SDS011;2304;47.606;12.186;2023-09-30T13:21:41;27.20;;;12.00;;
4583;SDS011;2304;47.606;12.186;2023-09-30T13:26:45;27.37;;;11.63;;
4583;SDS011;2304;47.606;12.186;2023-09-30T13:31:47;29.60;;;11.83;;
4583;SDS011;2304;47.606;12.186;2023-09-30T13:36:49;26.47;;;11.33;;
4583;SDS011;2304;47.606;12.186;2023-09-30T13:41:52;27.57;;;11.20;;
4583;SDS011;2304;47.606;12.186;2023-09-30T13:46:54;26.80;;;12.13;;
4583;SDS011;2304;47.606;12.186;2023-09-30T13:51:56;27.43;;;13.63;;
4583;SDS011;2304;47.606;12.186;2023-09-30T13:56:59;26.63;;;11.53;;
4583;SDS011;2304;47.606;12.186;2023-09-30T14:02:01;33.20;;;12.90;;
4583;SDS011;2304;47.606;12.186;2023-09-30T14:07:03;25.10;;;11.27;;
4583;SDS011;2304;47.606;12.186;2023-09-30T14:12:09;25.70;;;12.00;;
4583;SDS011;2304;47.606;12.186;2023-09-30T14:17:11;29.20;;;12.93;;
4583;SDS011;2304;47.606;12.186;2023-09-30T14:22:14;30.97;;;11.30;;
4583;SDS011;2304;47.606;12.186;2023-09-30T14:27:18;30.13;;;12.50;;
4583;SDS011;2304;47.606;12.186;2023-09-30T14:32:21;23.70;;;11.20;;
4583;SDS011;2304;47.606;12.186;2023-09-30T14:37:24;27.73;;;11.80;;
4583;SDS011;2304;47.606;12.186;2023-09-30T14:42:27;29.70;;;12.37;;
4583;SDS011;2304;47.606;12.186;2023-09-30T14:47:29;27.90;;;11.20;;
4583;SDS011;2304;47.606;12.186;2023-09-30T14:52:31;26.97;;;11.27;;
4583;SDS011;2304;47.606;12.186;2023-09-30T14:57:34;29.57;;;13.17;;
4583;SDS011;2304;47.606;12.186;2023-09-30T15:02:36;32.77;;;14.50;;
4583;SDS011;2304;47.606;12.186;2023-09-30T15:07:38;27.83;;;11.70;;
4583;SDS011;2304;47.606;12.186;2023-09-30T15:12:42;31.87;;;13.10;;
4583;SDS011;2304;47.606;12.186;2023-09-30T15:17:43;32.57;;;12.30;;
4583;SDS011;2304;47.606;12.186;2023-09-30T15:22:45;25.20;;;11.13;;
4583;SDS011;2304;47.606;12.186;2023-09-30T15:27:49;21.60;;;10.33;;
4583;SDS011;2304;47.606;12.186;2023-09-30T15:32:52;31.70;;;12.80;;
4583;SDS011;2304;47.606;12.186;2023-09-30T15:37:54;30.30;;;12.00;;
4583;SDS011;2304;47.606;12.186;2023-09-30T15:42:57;28.27;;;13.33;;
4583;SDS011;2304;47.606;12.186;2023-09-30T15:47:59;28.87;;;13.10;;
4583;SDS011;2304;47.606;12.186;2023-09-30T15:53:01;27.47;;;12.40;;
4583;SDS011;2304;47.606;12.186;2023-09-30T15:58:04;28.10;;;12.10;;
4583;SDS011;2304;47.606;12.186;2023-09-30T16:03:07;31.10;;;12.20;;
4583;SDS011;2304;47.606;12.186;2023-09-30T16:08:10;24.47;;;11.13;;
4583;SDS011;2304;47.606;12.186;2023-09-30T16:13:13;50.50;;;16.47;;
4583;SDS011;2304;47.606;12.186;2023-09-30T16:18:15;42.00;;;14.63;;
4583;SDS011;2304;47.606;12.186;2023-09-30T16:23:17;30.37;;;14.00;;
4583;SDS011;2304;47.606;12.186;2023-09-30T16:28:20;29.20;;;13.77;;
4583;SDS011;2304;47.606;12.186;2023-09-30T16:33:22;33.07;;;14.77;;
4583;SDS011;2304;47.606;12.186;2023-09-30T16:38:25;28.73;;;12.13;;
4583;SDS011;2304;47.606;12.186;2023-09-30T16:43:30;29.63;;;12.53;;
4583;SDS011;2304;47.606;12.186;2023-09-30T16:48:32;29.43;;;12.50;;
4583;SDS011;2304;47.606;12.186;2023-09-30T16:53:34;30.97;;;13.30;;
4583;SDS011;2304;47.606;12.186;2023-09-30T16:58:39;31.00;;;13.20;;
4583;SDS011;2304;47.606;12.186;2023-09-30T17:03:40;30.67;;;13.03;;
4583;SDS011;2304;47.606;12.186;2023-09-30T17:08:42;32.00;;;16.80;;
4583;SDS011;2304;47.606;12.186;2023-09-30T17:13:46;42.10;;;20.67;;
4583;SDS011;2304;47.606;12.186;2023-09-30T17:18:49;40.80;;;22.13;;
4583;SDS011;2304;47.606;12.186;2023-09-30T17:23:50;40.47;;;19.03;;
4583;SDS011;2304;47.606;12.186;2023-09-30T17:28:54;27.63;;;12.60;;
4583;SDS011;2304;47.606;12.186;2023-09-30T17:33:56;32.10;;;14.03;;
4583;SDS011;2304;47.606;12.186;2023-09-30T17:38:58;35.37;;;17.20;;
4583;SDS011;2304;47.606;12.186;2023-09-30T17:44:01;28.80;;;14.13;;
4583;SDS011;2304;47.606;12.186;2023-09-30T17:49:03;30.87;;;14.83;;
4583;SDS011;2304;47.606;12.186;2023-09-30T17:54:05;37.47;;;20.13;;
4583;SDS011;2304;47.606;12.186;2023-09-30T17:59:08;34.77;;;17.30;;
4583;SDS011;2304;47.606;12.186;2023-09-30T18:04:12;30.60;;;13.43;;
4583;SDS011;2304;47.606;12.186;2023-09-30T18:09:14;30.60;;;14.40;;
4583;SDS011;2304;47.606;12.186;2023-09-30T18:14:17;31.17;;;14.07;;
4583;SDS011;2304;47.606;12.186;2023-09-30T18:19:21;27.97;;;12.80;;
4583;SDS011;2304;47.606;12.186;2023-09-30T18:24:23;36.23;;;16.77;;
4583;SDS011;2304;47.606;12.186;2023-09-30T18:29:26;32.10;;;14.53;;
4583;SDS011;2304;47.606;12.186;2023-09-30T18:34:28;28.80;;;12.93;;
4583;SDS011;2304;47.606;12.186;2023-09-30T18:39:31;29.00;;;13.20;;
4583;SDS011;2304;47.606;12.186;2023-09-30T18:44:35;26.93;;;11.93;;
4583;SDS011;2304;47.606;12.186;2023-09-30T18:49:38;28.40;;;12.37;;
4583;SDS011;2304;47.606;12.186;2023-09-30T18:54:40;27.90;;;12.80;;
4583;SDS011;2304;47.606;12.186;2023-09-30T18:59:44;33.03;;;16.90;;
4583;SDS011;2304;47.606;12.186;2023-09-30T19:04:45;32.67;;;15.10;;
4583;SDS011;2304;47.606;12.186;2023-09-30T19:09:47;28.23;;;11.73;;
4583;SDS011;2304;47.606;12.186;2023-09-30T19:14:50;32.80;;;14.37;;
4583;SDS011;2304;47.606;12.186;2023-09-30T19:19:52;31.00;;;13.40;;
4583;SDS011;2304;47.606;12.186;2023-09-30T19:24:54;35.10;;;15.10;;
4583;SDS011;2304;47.606;12.186;2023-09-30T19:29:58;30.23;;;12.80;;
4583;SDS011;2304;47.606;12.186;2023-09-30T19:35:01;32.33;;;13.20;;
4583;SDS011;2304;47.606;12.186;2023-09-30T19:40:04;28.83;;;13.17;;
4583;SDS011;2304;47.606;12.186;2023-09-30T19:45:09;28.00;;;13.03;;
4583;SDS011;2304;47.606;12.186;2023-09-30T19:50:11;31.57;;;14.07;;
4583;SDS011;2304;47.606;12.186;2023-09-30T19:55:12;30.10;;;13.77;;
4583;SDS011;2304;47.606;12.186;2023-09-30T20:00:16;31.10;;;13.13;;
4583;SDS011;2304;47.606;12.186;2023-09-30T20:05:19;33.63;;;14.03;;
4583;SDS011;2304;47.606;12.186;2023-09-30T20:10:21;29.20;;;13.47;;
4583;SDS011;2304;47.606;12.186;2023-09-30T20:15:24;34.17;;;13.57;;
4583;SDS011;2304;47.606;12.186;2023-09-30T20:20:26;26.10;;;12.00;;
4583;SDS011;2304;47.606;12.186;2023-09-30T20:25:29;28.53;;;12.37;;
4583;SDS011;2304;47.606;12.186;2023-09-30T20:30:32;28.23;;;12.33;;
4583;SDS011;2304;47.606;12.186;2023-09-30T20:35:34;27.17;;;12.33;;
4583;SDS011;2304;47.606;12.186;2023-09-30T20:40:36;34.73;;;12.03;;
4583;SDS011;2304;47.606;12.186;2023-09-30T20:45:43;30.70;;;14.13;;
4583;SDS011;2304;47.606;12.186;2023-09-30T20:50:46;30.70;;;13.80;;
4583;SDS011;2304;47.606;12.186;2023-09-30T20:55:47;29.60;;;13.47;;
4583;SDS011;2304;47.606;12.186;2023-09-30T21:00:51;34.33;;;13.73;;
4583;SDS011;2304;47.606;12.186;2023-09-30T21:05:53;31.63;;;13.00;;
4583;SDS011;2304;47.606;12.186;2023-09-30T21:10:55;28.50;;;12.53;;
4583;SDS011;2304;47.606;12.186;2023-09-30T21:15:58;31.80;;;13.47;;
4583;SDS011;2304;47.606;12.186;2023-09-30T21:21:02;30.60;;;12.77;;
4583;SDS011;2304;47.606;12.186;2023-09-30T21:26:04;27.97;;;12.60;;
4583;SDS011;2304;47.606;12.186;2023-09-30T21:31:07;29.80;;;12.20;;
4583;SDS011;2304;47.606;12.186;2023-09-30T21:36:15;27.20;;;11.07;;
4583;SDS011;2304;47.606;12.186;2023-09-30T21:41:18;27.20;;;12.60;;
4583;SDS011;2304;47.606;12.186;2023-09-30T21:46:21;24.23;;;10.60;;
4583;SDS011;2304;47.606;12.186;2023-09-30T21:51:23;27.87;;;11.63;;
4583;SDS011;2304;47.606;12.186;2023-09-30T21:56:25;22.80;;;11.50;;
4583;SDS011;2304;47.606;12.186;2023-09-30T22:01:29;27.63;;;11.97;;
4583;SDS011;2304;47.606;12.186;2023-09-30T22:06:32;27.13;;;11.63;;
4583;SDS011;2304;47.606;12.186;2023-09-30T22:11:33;31.27;;;13.10;;
4583;SDS011;2304;47.606;12.186;2023-09-30T22:16:37;22.90;;;11.20;;
4583;SDS011;2304;47.606;12.186;2023-09-30T22:21:39;26.70;;;12.17;;
4583;SDS011;2304;47.606;12.186;2023-09-30T22:26:41;35.63;;;12.07;;
4583;SDS011;2304;47.606;12.186;2023-09-30T22:31:45;23.97;;;11.43;;
4583;SDS011;2304;47.606;12.186;2023-09-30T22:36:47;25.20;;;12.00;;
4583;SDS011;2304;47.606;12.186;2023-09-30T22:41:49;32.17;;;12.17;;
4583;SDS011;2304;47.606;12.186;2023-09-30T22:46:52;25.03;;;12.20;;
4583;SDS011;2304;47.606;12.186;2023-09-30T22:51:54;28.07;;;11.40;;
4583;SDS011;2304;47.606;12.186;2023-09-30T22:56:56;25.70;;;12.07;;
4583;SDS011;2304;47.606;12.186;2023-09-30T23:02:00;26.57;;;11.90;;
4583;SDS011;2304;47.606;12.186;2023-09-30T23:07:02;30.13;;;13.10;;
4583;SDS011;2304;47.606;12.186;2023-09-30T23:12:04;30.03;;;12.23;;
4583;SDS011;2304;47.606;12.186;2023-09-30T23:17:08;27.57;;;11.80;;
4583;SDS011;2304;47.606;12.186;2023-09-30T23:22:11;27.40;;;11.03;;
4583;SDS011;2304;47.606;12.186;2023-09-30T23:27:14;26.20;;;11.53;;
4583;SDS011;2304;47.606;12.186;2023-09-30T23:32:18;23.87;;;10.87;;
4583;SDS011;2304;47.606;12.186;2023-09-30T23:37:21;23.30;;;9.90;;
4583;SDS011;2304;47.606;12.186;2023-09-30T23:42:23;25.23;;;11.30;;
4583;SDS011;2304;47.606;12.186;2023-09-30T23:47:27;25.00;;;11.13;;
4583;SDS011;2304;47.606;12.186;2023-09-30T23:52:28;30.37;;;11.30;;
4583;SDS011;2304;47.606;12.186;2023-09-30T23:57:31;29.87;;;11.77;;
